sensor_id;sensor_type;location;lat;lon;timestamp;temperature;humidity
45715;DHT22;31430;61.646;24.704;2023-04-25T00:01:15;3.70;99.90
45715;DHT22;31430;61.646;24.704;2023-04-25T00:03:40;3.60;99.90
45715;DHT22;31430;61.646;24.704;2023-04-25T00:20:40;3.40;99.90
45715;DHT22;31430;61.646;24.704;2023-04-25T00:23:16;3.40;99.90
45715;DHT22;31430;61.646;24.704;2023-04-25T00:25:48;3.50;99.90
45715;DHT22;31430;61.646;24.704;2023-04-25T00:28:14;3.50;99.90
45715;DHT22;31430;61.646;24.704;2023-04-25T00:30:41;3.50;99.90
45715;DHT22;31430;61.646;24.704;2023-04-25T00:33:07;3.40;99.90
45715;DHT22;31430;61.646;24.704;2023-04-25T00:35:33;3.50;99.90
45715;DHT22;31430;61.646;24.704;2023-04-25T00:37:59;3.50;99.90
45715;DHT22;31430;61.646;24.704;2023-04-25T00:40:25;3.40;99.90
45715;DHT22;31430;61.646;24.704;2023-04-25T00:42:54;3.50;99.90
45715;DHT22;31430;61.646;24.704;2023-04-25T00:45:20;3.40;99.90
45715;DHT22;31430;61.646;24.704;2023-04-25T00:47:46;3.40;99.90
45715;DHT22;31430;61.646;24.704;2023-04-25T00:50:13;3.40;99.90
45715;DHT22;31430;61.646;24.704;2023-04-25T00:52:40;3.40;99.90
45715;DHT22;31430;61.646;24.704;2023-04-25T00:55:07;3.50;99.90
45715;DHT22;31430;61.646;24.704;2023-04-25T00:57:34;3.40;99.90
45715;DHT22;31430;61.646;24.704;2023-04-25T01:00:00;3.40;99.90
45715;DHT22;31430;61.646;24.704;2023-04-25T01:02:26;3.40;99.90
45715;DHT22;31430;61.646;24.704;2023-04-25T01:04:52;3.40;99.90
45715;DHT22;31430;61.646;24.704;2023-04-25T01:07:18;3.40;99.90
45715;DHT22;31430;61.646;24.704;2023-04-25T01:09:46;3.40;99.90
45715;DHT22;31430;61.646;24.704;2023-04-25T01:12:12;3.40;99.90
45715;DHT22;31430;61.646;24.704;2023-04-25T01:14:38;3.50;99.90
45715;DHT22;31430;61.646;24.704;2023-04-25T01:17:04;3.40;99.90
45715;DHT22;31430;61.646;24.704;2023-04-25T01:19:29;3.40;99.90
45715;DHT22;31430;61.646;24.704;2023-04-25T01:21:56;3.50;99.90
45715;DHT22;31430;61.646;24.704;2023-04-25T01:24:22;3.50;99.90
45715;DHT22;31430;61.646;24.704;2023-04-25T01:26:48;3.50;99.90
45715;DHT22;31430;61.646;24.704;2023-04-25T01:29:20;3.50;99.90
45715;DHT22;31430;61.646;24.704;2023-04-25T01:31:46;3.50;99.90
45715;DHT22;31430;61.646;24.704;2023-04-25T01:34:12;3.50;99.90
45715;DHT22;31430;61.646;24.704;2023-04-25T01:36:39;3.60;99.90
45715;DHT22;31430;61.646;24.704;2023-04-25T01:39:05;3.60;99.90
45715;DHT22;31430;61.646;24.704;2023-04-25T01:41:31;3.60;99.90
45715;DHT22;31430;61.646;24.704;2023-04-25T01:43:57;3.60;99.90
45715;DHT22;31430;61.646;24.704;2023-04-25T01:46:23;3.60;99.90
45715;DHT22;31430;61.646;24.704;2023-04-25T01:48:48;3.60;99.90
45715;DHT22;31430;61.646;24.704;2023-04-25T01:51:14;3.60;99.90
45715;DHT22;31430;61.646;24.704;2023-04-25T01:53:40;3.60;99.90
45715;DHT22;31430;61.646;24.704;2023-04-25T01:56:06;3.60;99.90
45715;DHT22;31430;61.646;24.704;2023-04-25T01:58:32;3.60;99.90
45715;DHT22;31430;61.646;24.704;2023-04-25T02:00:58;3.60;99.90
45715;DHT22;31430;61.646;24.704;2023-04-25T02:03:27;3.70;99.90
45715;DHT22;31430;61.646;24.704;2023-04-25T02:05:52;3.70;99.90
45715;DHT22;31430;61.646;24.704;2023-04-25T02:08:18;3.60;99.90
45715;DHT22;31430;61.646;24.704;2023-04-25T02:10:44;3.60;99.90
45715;DHT22;31430;61.646;24.704;2023-04-25T02:13:09;3.70;99.90
45715;DHT22;31430;61.646;24.704;2023-04-25T02:15:35;3.70;99.90
45715;DHT22;31430;61.646;24.704;2023-04-25T02:18:01;3.70;99.90
45715;DHT22;31430;61.646;24.704;2023-04-25T02:20:28;3.70;99.90
45715;DHT22;31430;61.646;24.704;2023-04-25T02:22:54;3.70;99.90
45715;DHT22;31430;61.646;24.704;2023-04-25T02:25:20;3.70;99.90
45715;DHT22;31430;61.646;24.704;2023-04-25T02:27:47;3.80;99.90
45715;DHT22;31430;61.646;24.704;2023-04-25T02:30:13;3.80;99.90
45715;DHT22;31430;61.646;24.704;2023-04-25T02:32:39;3.80;99.90
45715;DHT22;31430;61.646;24.704;2023-04-25T02:35:05;3.80;99.90
45715;DHT22;31430;61.646;24.704;2023-04-25T02:37:32;3.90;99.90
45715;DHT22;31430;61.646;24.704;2023-04-25T02:39:58;3.90;99.90
45715;DHT22;31430;61.646;24.704;2023-04-25T02:42:26;3.80;99.90
45715;DHT22;31430;61.646;24.704;2023-04-25T02:44:52;3.90;99.90
45715;DHT22;31430;61.646;24.704;2023-04-25T02:47:17;4.00;99.90
45715;DHT22;31430;61.646;24.704;2023-04-25T02:49:43;3.90;99.90
45715;DHT22;31430;61.646;24.704;2023-04-25T02:52:09;4.00;99.90
45715;DHT22;31430;61.646;24.704;2023-04-25T02:54:35;4.00;99.90
45715;DHT22;31430;61.646;24.704;2023-04-25T02:57:00;4.00;99.90
45715;DHT22;31430;61.646;24.704;2023-04-25T02:59:28;4.00;99.90
45715;DHT22;31430;61.646;24.704;2023-04-25T03:01:54;4.00;99.90
45715;DHT22;31430;61.646;24.704;2023-04-25T03:04:20;4.00;99.90
45715;DHT22;31430;61.646;24.704;2023-04-25T03:06:46;4.00;99.90
45715;DHT22;31430;61.646;24.704;2023-04-25T03:09:12;4.10;99.90
45715;DHT22;31430;61.646;24.704;2023-04-25T03:11:41;4.10;99.90
45715;DHT22;31430;61.646;24.704;2023-04-25T03:14:06;4.00;99.90
45715;DHT22;31430;61.646;24.704;2023-04-25T03:16:32;4.10;99.90
45715;DHT22;31430;61.646;24.704;2023-04-25T03:18:58;4.00;99.90
45715;DHT22;31430;61.646;24.704;2023-04-25T03:21:23;4.00;99.90
45715;DHT22;31430;61.646;24.704;2023-04-25T03:23:49;4.00;99.90
45715;DHT22;31430;61.646;24.704;2023-04-25T03:26:15;4.10;99.90
45715;DHT22;31430;61.646;24.704;2023-04-25T03:28:41;4.10;99.90
45715;DHT22;31430;61.646;24.704;2023-04-25T03:31:06;4.10;99.90
45715;DHT22;31430;61.646;24.704;2023-04-25T03:33:32;4.10;99.90
45715;DHT22;31430;61.646;24.704;2023-04-25T03:35:58;4.20;99.90
45715;DHT22;31430;61.646;24.704;2023-04-25T03:38:23;4.20;99.90
45715;DHT22;31430;61.646;24.704;2023-04-25T03:40:50;4.10;99.90
45715;DHT22;31430;61.646;24.704;2023-04-25T03:43:16;4.10;99.90
45715;DHT22;31430;61.646;24.704;2023-04-25T03:45:42;4.20;99.90
45715;DHT22;31430;61.646;24.704;2023-04-25T03:48:08;4.30;99.90
45715;DHT22;31430;61.646;24.704;2023-04-25T03:50:34;4.30;99.90
45715;DHT22;31430;61.646;24.704;2023-04-25T03:52:59;4.30;99.90
45715;DHT22;31430;61.646;24.704;2023-04-25T03:55:25;4.40;99.90
45715;DHT22;31430;61.646;24.704;2023-04-25T03:57:51;4.20;99.90
45715;DHT22;31430;61.646;24.704;2023-04-25T04:00:16;4.20;99.90
45715;DHT22;31430;61.646;24.704;2023-04-25T04:02:42;4.20;99.90
45715;DHT22;31430;61.646;24.704;2023-04-25T04:05:08;4.20;99.90
45715;DHT22;31430;61.646;24.704;2023-04-25T04:07:34;4.10;99.90
45715;DHT22;31430;61.646;24.704;2023-04-25T04:10:06;4.10;99.90
45715;DHT22;31430;61.646;24.704;2023-04-25T04:12:33;4.20;99.90
45715;DHT22;31430;61.646;24.704;2023-04-25T04:14:58;4.20;99.90
45715;DHT22;31430;61.646;24.704;2023-04-25T04:17:24;4.20;99.90
45715;DHT22;31430;61.646;24.704;2023-04-25T04:19:50;4.10;99.90
45715;DHT22;31430;61.646;24.704;2023-04-25T04:22:16;4.20;99.90
45715;DHT22;31430;61.646;24.704;2023-04-25T04:24:42;4.20;99.90
45715;DHT22;31430;61.646;24.704;2023-04-25T04:27:11;4.20;99.90
45715;DHT22;31430;61.646;24.704;2023-04-25T04:29:38;4.20;99.90
45715;DHT22;31430;61.646;24.704;2023-04-25T04:32:04;4.30;99.90
45715;DHT22;31430;61.646;24.704;2023-04-25T04:34:30;4.30;99.90
45715;DHT22;31430;61.646;24.704;2023-04-25T04:36:56;4.30;99.90
45715;DHT22;31430;61.646;24.704;2023-04-25T04:39:22;4.20;99.90
45715;DHT22;31430;61.646;24.704;2023-04-25T04:41:48;4.10;99.90
45715;DHT22;31430;61.646;24.704;2023-04-25T04:44:14;4.20;99.90
45715;DHT22;31430;61.646;24.704;2023-04-25T04:46:40;4.20;99.90
45715;DHT22;31430;61.646;24.704;2023-04-25T04:49:10;4.20;99.90
45715;DHT22;31430;61.646;24.704;2023-04-25T04:51:37;4.20;99.90
45715;DHT22;31430;61.646;24.704;2023-04-25T04:54:03;4.30;99.90
45715;DHT22;31430;61.646;24.704;2023-04-25T04:56:29;4.40;99.90
45715;DHT22;31430;61.646;24.704;2023-04-25T04:58:59;4.40;99.90
45715;DHT22;31430;61.646;24.704;2023-04-25T05:01:25;4.40;99.90
45715;DHT22;31430;61.646;24.704;2023-04-25T05:03:52;4.40;99.90
45715;DHT22;31430;61.646;24.704;2023-04-25T05:06:18;4.40;99.90
45715;DHT22;31430;61.646;24.704;2023-04-25T05:08:44;4.50;99.90
45715;DHT22;31430;61.646;24.704;2023-04-25T05:11:10;4.60;99.90
45715;DHT22;31430;61.646;24.704;2023-04-25T05:13:36;4.60;99.90
45715;DHT22;31430;61.646;24.704;2023-04-25T05:16:02;4.60;99.90
45715;DHT22;31430;61.646;24.704;2023-04-25T05:18:28;4.60;99.90
45715;DHT22;31430;61.646;24.704;2023-04-25T05:20:54;4.50;99.90
45715;DHT22;31430;61.646;24.704;2023-04-25T05:23:19;4.50;99.90
45715;DHT22;31430;61.646;24.704;2023-04-25T05:25:45;4.70;99.90
45715;DHT22;31430;61.646;24.704;2023-04-25T05:28:17;4.50;99.90
45715;DHT22;31430;61.646;24.704;2023-04-25T05:30:42;4.40;99.90
45715;DHT22;31430;61.646;24.704;2023-04-25T05:33:08;4.40;99.90
45715;DHT22;31430;61.646;24.704;2023-04-25T05:35:34;4.50;99.90
45715;DHT22;31430;61.646;24.704;2023-04-25T05:38:00;4.50;99.90
45715;DHT22;31430;61.646;24.704;2023-04-25T05:40:25;4.50;99.90
45715;DHT22;31430;61.646;24.704;2023-04-25T05:42:51;4.60;99.90
45715;DHT22;31430;61.646;24.704;2023-04-25T05:45:17;4.50;99.90
45715;DHT22;31430;61.646;24.704;2023-04-25T05:47:43;4.70;99.90
45715;DHT22;31430;61.646;24.704;2023-04-25T05:50:09;4.60;99.90
45715;DHT22;31430;61.646;24.704;2023-04-25T05:52:34;4.60;99.90
45715;DHT22;31430;61.646;24.704;2023-04-25T05:55:00;4.40;99.90
45715;DHT22;31430;61.646;24.704;2023-04-25T05:57:27;4.50;99.90
45715;DHT22;31430;61.646;24.704;2023-04-25T05:59:53;4.40;99.90
45715;DHT22;31430;61.646;24.704;2023-04-25T06:02:19;4.40;99.90
45715;DHT22;31430;61.646;24.704;2023-04-25T06:04:45;4.40;99.90
45715;DHT22;31430;61.646;24.704;2023-04-25T06:07:11;4.50;99.90
45715;DHT22;31430;61.646;24.704;2023-04-25T06:09:37;4.50;99.90
45715;DHT22;31430;61.646;24.704;2023-04-25T06:12:05;4.60;99.90
45715;DHT22;31430;61.646;24.704;2023-04-25T06:14:31;4.70;99.90
45715;DHT22;31430;61.646;24.704;2023-04-25T06:16:56;4.80;99.90
45715;DHT22;31430;61.646;24.704;2023-04-25T06:19:22;4.80;99.90
45715;DHT22;31430;61.646;24.704;2023-04-25T06:21:48;4.70;99.90
45715;DHT22;31430;61.646;24.704;2023-04-25T06:24:13;4.70;99.90
45715;DHT22;31430;61.646;24.704;2023-04-25T06:26:39;4.70;99.90
45715;DHT22;31430;61.646;24.704;2023-04-25T06:29:05;4.70;99.90
45715;DHT22;31430;61.646;24.704;2023-04-25T06:31:30;4.70;99.90
45715;DHT22;31430;61.646;24.704;2023-04-25T06:33:58;4.80;99.90
45715;DHT22;31430;61.646;24.704;2023-04-25T06:36:24;4.90;99.90
45715;DHT22;31430;61.646;24.704;2023-04-25T06:38:53;4.90;99.90
45715;DHT22;31430;61.646;24.704;2023-04-25T06:41:20;4.90;99.90
45715;DHT22;31430;61.646;24.704;2023-04-25T06:43:46;4.80;99.90
45715;DHT22;31430;61.646;24.704;2023-04-25T06:46:12;4.90;99.90
45715;DHT22;31430;61.646;24.704;2023-04-25T06:48:38;4.80;99.90
45715;DHT22;31430;61.646;24.704;2023-04-25T06:51:03;4.90;99.90
45715;DHT22;31430;61.646;24.704;2023-04-25T06:53:29;5.10;99.90
45715;DHT22;31430;61.646;24.704;2023-04-25T06:55:55;5.10;99.90
45715;DHT22;31430;61.646;24.704;2023-04-25T06:58:20;5.40;99.90
45715;DHT22;31430;61.646;24.704;2023-04-25T07:00:46;5.30;99.90
45715;DHT22;31430;61.646;24.704;2023-04-25T07:03:12;5.30;99.90
45715;DHT22;31430;61.646;24.704;2023-04-25T07:05:38;5.40;99.90
45715;DHT22;31430;61.646;24.704;2023-04-25T07:08:03;5.30;99.90
45715;DHT22;31430;61.646;24.704;2023-04-25T07:10:29;5.10;99.90
45715;DHT22;31430;61.646;24.704;2023-04-25T07:12:55;5.20;99.90
45715;DHT22;31430;61.646;24.704;2023-04-25T07:15:21;5.20;99.90
45715;DHT22;31430;61.646;24.704;2023-04-25T07:17:46;5.20;99.90
45715;DHT22;31430;61.646;24.704;2023-04-25T07:20:12;5.30;99.90
45715;DHT22;31430;61.646;24.704;2023-04-25T07:22:38;5.30;99.90
45715;DHT22;31430;61.646;24.704;2023-04-25T07:25:04;5.30;99.90
45715;DHT22;31430;61.646;24.704;2023-04-25T07:27:30;5.30;99.90
45715;DHT22;31430;61.646;24.704;2023-04-25T07:29:56;5.30;99.90
45715;DHT22;31430;61.646;24.704;2023-04-25T07:32:21;5.30;99.90
45715;DHT22;31430;61.646;24.704;2023-04-25T07:34:47;5.40;99.90
45715;DHT22;31430;61.646;24.704;2023-04-25T07:37:13;5.30;99.90
45715;DHT22;31430;61.646;24.704;2023-04-25T07:39:39;5.30;99.90
45715;DHT22;31430;61.646;24.704;2023-04-25T07:42:05;5.50;99.90
45715;DHT22;31430;61.646;24.704;2023-04-25T07:44:34;5.40;99.90
45715;DHT22;31430;61.646;24.704;2023-04-25T07:47:05;5.40;99.90
45715;DHT22;31430;61.646;24.704;2023-04-25T07:49:33;5.50;99.90
45715;DHT22;31430;61.646;24.704;2023-04-25T07:52:00;5.50;99.90
45715;DHT22;31430;61.646;24.704;2023-04-25T07:54:26;5.50;99.90
45715;DHT22;31430;61.646;24.704;2023-04-25T07:56:51;5.40;99.90
45715;DHT22;31430;61.646;24.704;2023-04-25T07:59:17;5.60;99.90
45715;DHT22;31430;61.646;24.704;2023-04-25T08:01:43;5.80;99.90
45715;DHT22;31430;61.646;24.704;2023-04-25T08:04:09;6.00;99.90
45715;DHT22;31430;61.646;24.704;2023-04-25T08:06:34;5.70;99.90
45715;DHT22;31430;61.646;24.704;2023-04-25T08:09:01;5.70;99.90
45715;DHT22;31430;61.646;24.704;2023-04-25T08:11:27;5.80;99.90
45715;DHT22;31430;61.646;24.704;2023-04-25T08:13:52;6.00;99.90
45715;DHT22;31430;61.646;24.704;2023-04-25T08:16:18;6.00;99.90
45715;DHT22;31430;61.646;24.704;2023-04-25T08:18:44;6.00;99.90
45715;DHT22;31430;61.646;24.704;2023-04-25T08:21:09;6.20;99.90
45715;DHT22;31430;61.646;24.704;2023-04-25T08:23:37;6.40;99.90
45715;DHT22;31430;61.646;24.704;2023-04-25T08:26:02;6.40;99.90
45715;DHT22;31430;61.646;24.704;2023-04-25T08:28:28;6.80;99.90
45715;DHT22;31430;61.646;24.704;2023-04-25T08:30:54;7.10;99.90
45715;DHT22;31430;61.646;24.704;2023-04-25T08:33:20;7.00;99.90
45715;DHT22;31430;61.646;24.704;2023-04-25T08:35:45;7.30;99.90
45715;DHT22;31430;61.646;24.704;2023-04-25T08:38:11;7.60;99.90
45715;DHT22;31430;61.646;24.704;2023-04-25T08:40:38;7.70;99.90
45715;DHT22;31430;61.646;24.704;2023-04-25T08:43:06;7.40;99.90
45715;DHT22;31430;61.646;24.704;2023-04-25T08:45:39;7.70;99.90
45715;DHT22;31430;61.646;24.704;2023-04-25T08:48:11;7.60;99.90
45715;DHT22;31430;61.646;24.704;2023-04-25T08:51:01;7.40;99.90
45715;DHT22;31430;61.646;24.704;2023-04-25T08:53:29;7.50;99.90
45715;DHT22;31430;61.646;24.704;2023-04-25T08:55:56;7.80;99.90
45715;DHT22;31430;61.646;24.704;2023-04-25T08:58:23;7.80;99.90
45715;DHT22;31430;61.646;24.704;2023-04-25T09:00:49;8.10;99.90
45715;DHT22;31430;61.646;24.704;2023-04-25T09:03:16;7.90;99.90
45715;DHT22;31430;61.646;24.704;2023-04-25T09:05:42;7.80;99.90
45715;DHT22;31430;61.646;24.704;2023-04-25T09:08:08;8.20;99.90
45715;DHT22;31430;61.646;24.704;2023-04-25T09:10:34;8.60;99.90
45715;DHT22;31430;61.646;24.704;2023-04-25T09:13:07;8.60;99.90
45715;DHT22;31430;61.646;24.704;2023-04-25T09:15:55;8.70;99.90
45715;DHT22;31430;61.646;24.704;2023-04-25T09:18:26;8.80;99.90
45715;DHT22;31430;61.646;24.704;2023-04-25T09:20:57;9.10;99.90
45715;DHT22;31430;61.646;24.704;2023-04-25T09:23:24;9.60;99.90
45715;DHT22;31430;61.646;24.704;2023-04-25T09:25:53;9.80;99.90
45715;DHT22;31430;61.646;24.704;2023-04-25T09:28:26;9.30;99.90
45715;DHT22;31430;61.646;24.704;2023-04-25T09:30:57;9.50;99.90
45715;DHT22;31430;61.646;24.704;2023-04-25T09:33:31;9.40;99.90
45715;DHT22;31430;61.646;24.704;2023-04-25T09:36:09;9.20;99.90
45715;DHT22;31430;61.646;24.704;2023-04-25T09:38:41;9.30;99.90
45715;DHT22;31430;61.646;24.704;2023-04-25T09:41:08;9.30;99.90
45715;DHT22;31430;61.646;24.704;2023-04-25T09:43:34;9.40;99.90
45715;DHT22;31430;61.646;24.704;2023-04-25T09:46:00;9.60;99.90
45715;DHT22;31430;61.646;24.704;2023-04-25T09:48:27;9.90;99.90
45715;DHT22;31430;61.646;24.704;2023-04-25T09:51:06;10.30;99.90
45715;DHT22;31430;61.646;24.704;2023-04-25T09:53:40;10.10;99.90
45715;DHT22;31430;61.646;24.704;2023-04-25T09:56:08;10.40;99.90
45715;DHT22;31430;61.646;24.704;2023-04-25T09:58:36;10.40;99.90
45715;DHT22;31430;61.646;24.704;2023-04-25T10:01:09;10.50;99.90
45715;DHT22;31430;61.646;24.704;2023-04-25T10:03:37;10.60;99.90
45715;DHT22;31430;61.646;24.704;2023-04-25T10:06:14;10.80;99.90
45715;DHT22;31430;61.646;24.704;2023-04-25T10:08:43;10.80;99.90
45715;DHT22;31430;61.646;24.704;2023-04-25T10:11:10;11.00;99.90
45715;DHT22;31430;61.646;24.704;2023-04-25T10:13:35;11.20;99.90
45715;DHT22;31430;61.646;24.704;2023-04-25T10:16:03;11.20;99.90
45715;DHT22;31430;61.646;24.704;2023-04-25T10:18:30;11.10;99.90
45715;DHT22;31430;61.646;24.704;2023-04-25T10:21:00;11.00;99.90
45715;DHT22;31430;61.646;24.704;2023-04-25T10:23:26;11.10;99.90
45715;DHT22;31430;61.646;24.704;2023-04-25T10:25:53;11.50;99.90
45715;DHT22;31430;61.646;24.704;2023-04-25T10:28:20;11.40;99.90
45715;DHT22;31430;61.646;24.704;2023-04-25T10:31:07;10.70;99.90
45715;DHT22;31430;61.646;24.704;2023-04-25T10:33:37;10.30;99.90
45715;DHT22;31430;61.646;24.704;2023-04-25T10:38:36;10.00;99.90
45715;DHT22;31430;61.646;24.704;2023-04-25T10:41:08;10.00;99.90
45715;DHT22;31430;61.646;24.704;2023-04-25T10:43:41;9.70;99.90
45715;DHT22;31430;61.646;24.704;2023-04-25T10:46:17;10.00;99.90
45715;DHT22;31430;61.646;24.704;2023-04-25T10:48:53;10.20;99.90
45715;DHT22;31430;61.646;24.704;2023-04-25T10:56:30;10.40;99.90
45715;DHT22;31430;61.646;24.704;2023-04-25T10:59:23;10.50;99.90
45715;DHT22;31430;61.646;24.704;2023-04-25T11:01:53;10.60;99.90
45715;DHT22;31430;61.646;24.704;2023-04-25T11:04:29;10.80;99.90
45715;DHT22;31430;61.646;24.704;2023-04-25T11:09:30;11.20;99.90
45715;DHT22;31430;61.646;24.704;2023-04-25T11:11:57;11.70;99.90
45715;DHT22;31430;61.646;24.704;2023-04-25T11:14:24;11.70;99.90
45715;DHT22;31430;61.646;24.704;2023-04-25T11:16:57;11.70;99.90
45715;DHT22;31430;61.646;24.704;2023-04-25T11:19:24;11.50;99.90
45715;DHT22;31430;61.646;24.704;2023-04-25T11:21:50;11.50;99.90
45715;DHT22;31430;61.646;24.704;2023-04-25T11:24:16;11.60;99.90
45715;DHT22;31430;61.646;24.704;2023-04-25T11:26:43;11.60;99.90
45715;DHT22;31430;61.646;24.704;2023-04-25T11:29:09;12.30;99.90
45715;DHT22;31430;61.646;24.704;2023-04-25T11:31:35;12.60;99.90
45715;DHT22;31430;61.646;24.704;2023-04-25T11:34:01;12.70;99.90
45715;DHT22;31430;61.646;24.704;2023-04-25T11:36:27;13.10;99.90
45715;DHT22;31430;61.646;24.704;2023-04-25T11:38:53;13.20;99.90
45715;DHT22;31430;61.646;24.704;2023-04-25T11:41:22;12.80;99.90
45715;DHT22;31430;61.646;24.704;2023-04-25T11:43:48;12.90;99.90
45715;DHT22;31430;61.646;24.704;2023-04-25T11:46:15;13.10;99.90
45715;DHT22;31430;61.646;24.704;2023-04-25T11:48:42;12.90;99.90
45715;DHT22;31430;61.646;24.704;2023-04-25T11:51:08;12.50;99.90
45715;DHT22;31430;61.646;24.704;2023-04-25T11:53:34;12.70;99.90
45715;DHT22;31430;61.646;24.704;2023-04-25T11:56:01;12.80;99.90
45715;DHT22;31430;61.646;24.704;2023-04-25T11:58:26;12.40;99.90
45715;DHT22;31430;61.646;24.704;2023-04-25T12:00:52;12.70;99.90
45715;DHT22;31430;61.646;24.704;2023-04-25T12:03:18;12.90;99.90
45715;DHT22;31430;61.646;24.704;2023-04-25T12:05:44;13.30;99.90
45715;DHT22;31430;61.646;24.704;2023-04-25T12:08:17;13.60;99.90
45715;DHT22;31430;61.646;24.704;2023-04-25T12:10:45;14.00;99.90
45715;DHT22;31430;61.646;24.704;2023-04-25T12:13:23;14.40;99.90
45715;DHT22;31430;61.646;24.704;2023-04-25T12:15:49;15.00;99.90
45715;DHT22;31430;61.646;24.704;2023-04-25T12:18:18;14.90;99.90
45715;DHT22;31430;61.646;24.704;2023-04-25T12:20:44;15.40;99.90
45715;DHT22;31430;61.646;24.704;2023-04-25T12:23:09;15.20;99.90
45715;DHT22;31430;61.646;24.704;2023-04-25T12:25:44;15.20;99.90
45715;DHT22;31430;61.646;24.704;2023-04-25T12:33:29;16.50;99.90
45715;DHT22;31430;61.646;24.704;2023-04-25T12:35:55;16.10;99.90
45715;DHT22;31430;61.646;24.704;2023-04-25T12:38:28;16.30;99.90
45715;DHT22;31430;61.646;24.704;2023-04-25T12:40:59;16.80;98.60
45715;DHT22;31430;61.646;24.704;2023-04-25T12:43:25;16.60;98.00
45715;DHT22;31430;61.646;24.704;2023-04-25T12:45:52;16.30;98.40
45715;DHT22;31430;61.646;24.704;2023-04-25T12:48:19;16.60;96.00
45715;DHT22;31430;61.646;24.704;2023-04-25T12:50:45;16.40;98.70
45715;DHT22;31430;61.646;24.704;2023-04-25T12:53:13;16.10;98.50
45715;DHT22;31430;61.646;24.704;2023-04-25T12:55:39;16.20;98.90
45715;DHT22;31430;61.646;24.704;2023-04-25T12:58:05;16.30;96.60
45715;DHT22;31430;61.646;24.704;2023-04-25T13:00:30;16.60;96.20
45715;DHT22;31430;61.646;24.704;2023-04-25T13:02:57;16.80;95.10
45715;DHT22;31430;61.646;24.704;2023-04-25T13:05:23;16.40;96.90
45715;DHT22;31430;61.646;24.704;2023-04-25T13:07:49;16.60;95.00
45715;DHT22;31430;61.646;24.704;2023-04-25T13:10:14;16.90;94.10
45715;DHT22;31430;61.646;24.704;2023-04-25T13:12:40;16.90;93.70
45715;DHT22;31430;61.646;24.704;2023-04-25T13:15:07;16.80;92.70
45715;DHT22;31430;61.646;24.704;2023-04-25T13:17:34;16.90;94.80
45715;DHT22;31430;61.646;24.704;2023-04-25T13:20:00;16.60;93.50
45715;DHT22;31430;61.646;24.704;2023-04-25T13:22:25;16.00;95.90
45715;DHT22;31430;61.646;24.704;2023-04-25T13:24:51;16.40;96.10
45715;DHT22;31430;61.646;24.704;2023-04-25T13:27:17;16.80;93.30
45715;DHT22;31430;61.646;24.704;2023-04-25T13:29:42;16.80;93.90
45715;DHT22;31430;61.646;24.704;2023-04-25T13:32:09;16.90;92.20
45715;DHT22;31430;61.646;24.704;2023-04-25T13:34:34;17.10;92.40
45715;DHT22;31430;61.646;24.704;2023-04-25T13:37:00;17.40;92.10
45715;DHT22;31430;61.646;24.704;2023-04-25T13:39:29;17.70;88.20
45715;DHT22;31430;61.646;24.704;2023-04-25T13:41:54;17.80;87.10
45715;DHT22;31430;61.646;24.704;2023-04-25T13:44:21;18.00;85.10
45715;DHT22;31430;61.646;24.704;2023-04-25T13:46:47;17.80;83.90
45715;DHT22;31430;61.646;24.704;2023-04-25T13:49:12;17.80;81.80
45715;DHT22;31430;61.646;24.704;2023-04-25T13:51:38;17.90;82.60
45715;DHT22;31430;61.646;24.704;2023-04-25T13:54:04;17.80;82.40
45715;DHT22;31430;61.646;24.704;2023-04-25T13:56:30;17.90;81.50
45715;DHT22;31430;61.646;24.704;2023-04-25T13:58:55;17.80;82.50
45715;DHT22;31430;61.646;24.704;2023-04-25T14:01:22;17.90;80.70
45715;DHT22;31430;61.646;24.704;2023-04-25T14:03:47;18.20;80.50
45715;DHT22;31430;61.646;24.704;2023-04-25T14:06:13;18.30;78.10
45715;DHT22;31430;61.646;24.704;2023-04-25T14:08:39;18.30;77.50
45715;DHT22;31430;61.646;24.704;2023-04-25T14:11:04;18.30;78.40
45715;DHT22;31430;61.646;24.704;2023-04-25T14:13:30;18.00;80.30
45715;DHT22;31430;61.646;24.704;2023-04-25T14:15:56;18.20;80.50
45715;DHT22;31430;61.646;24.704;2023-04-25T14:18:22;18.00;79.70
45715;DHT22;31430;61.646;24.704;2023-04-25T14:20:48;17.90;79.90
45715;DHT22;31430;61.646;24.704;2023-04-25T14:23:13;18.10;80.20
45715;DHT22;31430;61.646;24.704;2023-04-25T14:25:39;18.20;78.10
45715;DHT22;31430;61.646;24.704;2023-04-25T14:28:07;18.30;77.10
45715;DHT22;31430;61.646;24.704;2023-04-25T14:30:33;18.30;76.90
45715;DHT22;31430;61.646;24.704;2023-04-25T14:32:58;18.50;77.10
45715;DHT22;31430;61.646;24.704;2023-04-25T14:35:24;18.70;74.10
45715;DHT22;31430;61.646;24.704;2023-04-25T14:37:50;18.40;73.10
45715;DHT22;31430;61.646;24.704;2023-04-25T14:40:15;18.50;73.40
45715;DHT22;31430;61.646;24.704;2023-04-25T14:42:42;18.60;72.80
45715;DHT22;31430;61.646;24.704;2023-04-25T14:45:08;18.60;71.70
45715;DHT22;31430;61.646;24.704;2023-04-25T14:47:34;18.70;69.10
45715;DHT22;31430;61.646;24.704;2023-04-25T14:50:01;18.70;68.50
45715;DHT22;31430;61.646;24.704;2023-04-25T14:52:27;18.60;68.80
45715;DHT22;31430;61.646;24.704;2023-04-25T14:54:53;18.70;68.90
45715;DHT22;31430;61.646;24.704;2023-04-25T14:57:19;18.60;67.80
45715;DHT22;31430;61.646;24.704;2023-04-25T14:59:45;18.70;67.80
45715;DHT22;31430;61.646;24.704;2023-04-25T15:02:11;18.60;69.80
45715;DHT22;31430;61.646;24.704;2023-04-25T15:04:37;18.70;68.80
45715;DHT22;31430;61.646;24.704;2023-04-25T15:07:03;18.70;67.50
45715;DHT22;31430;61.646;24.704;2023-04-25T15:09:29;18.80;67.00
45715;DHT22;31430;61.646;24.704;2023-04-25T15:11:55;18.70;67.30
45715;DHT22;31430;61.646;24.704;2023-04-25T15:14:20;18.80;67.10
45715;DHT22;31430;61.646;24.704;2023-04-25T15:16:46;18.70;65.90
45715;DHT22;31430;61.646;24.704;2023-04-25T15:19:12;18.70;66.30
45715;DHT22;31430;61.646;24.704;2023-04-25T15:21:37;18.70;67.60
45715;DHT22;31430;61.646;24.704;2023-04-25T15:24:03;18.60;66.90
45715;DHT22;31430;61.646;24.704;2023-04-25T15:26:29;18.60;66.20
45715;DHT22;31430;61.646;24.704;2023-04-25T15:28:55;18.30;66.30
45715;DHT22;31430;61.646;24.704;2023-04-25T15:31:22;18.20;66.90
45715;DHT22;31430;61.646;24.704;2023-04-25T15:33:47;18.00;67.50
45715;DHT22;31430;61.646;24.704;2023-04-25T15:36:13;17.80;67.60
45715;DHT22;31430;61.646;24.704;2023-04-25T15:38:41;17.60;69.30
45715;DHT22;31430;61.646;24.704;2023-04-25T15:41:07;17.60;69.60
45715;DHT22;31430;61.646;24.704;2023-04-25T15:43:33;17.50;69.20
45715;DHT22;31430;61.646;24.704;2023-04-25T15:46:02;17.40;69.70
45715;DHT22;31430;61.646;24.704;2023-04-25T15:48:28;17.30;69.80
45715;DHT22;31430;61.646;24.704;2023-04-25T15:50:54;17.20;69.40
45715;DHT22;31430;61.646;24.704;2023-04-25T15:53:20;17.10;69.30